createdAt,value
2022-11-24T00:01:06.397Z,100269.31
2022-11-24T00:03:33.471Z,100278.56
2022-11-24T00:06:11.217Z,100274.72
2022-11-24T00:08:39.937Z,100277.78
2022-11-24T00:11:11.781Z,100281.25
2022-11-24T00:13:39.361Z,100290.16
2022-11-24T00:16:17.082Z,100296.69
2022-11-24T00:18:46.055Z,100300.81
2022-11-24T00:21:13.112Z,100289.25
2022-11-24T00:23:39.741Z,100307.28
2022-11-24T00:26:15.140Z,100301.44
2022-11-24T00:28:42.781Z,100298.72
2022-11-24T00:31:27.079Z,100300.19
2022-11-24T00:33:56.379Z,100294.25
2022-11-24T00:36:24.805Z,100290.75
2022-11-24T00:38:55.771Z,100284.56
2022-11-24T00:41:23.470Z,100292.88
2022-11-24T00:43:50.183Z,100286.69
2022-11-24T00:46:17.015Z,100298.19
2022-11-24T00:48:43.799Z,100293.09
2022-11-24T00:51:12.560Z,100293.59
2022-11-24T00:53:39.112Z,100293.91
2022-11-24T00:56:05.802Z,100300.44
2022-11-24T00:58:33.050Z,100302.34
2022-11-24T01:01:15.537Z,100313.47
2022-11-24T01:03:43.298Z,100312.69
2022-11-24T01:06:13.013Z,100308.78
2022-11-24T01:08:40.285Z,100318.34
2022-11-24T01:11:19.065Z,100335.63
2022-11-24T01:13:49.149Z,100322.50
2022-11-24T01:16:21.931Z,100317.09
2022-11-24T01:18:48.891Z,100332.84
2022-11-24T01:21:16.250Z,100321.25
2022-11-24T01:23:42.841Z,100320.03
2022-11-24T01:26:12.528Z,100332.75
2022-11-24T01:28:44.856Z,100333.88
2022-11-24T01:31:13.919Z,100327.22
2022-11-24T01:33:40.435Z,100331.16
2022-11-24T01:36:06.968Z,100325.44
2022-11-24T01:38:33.629Z,100327.34
2022-11-24T01:41:12.527Z,100332.84
2022-11-24T01:43:39.529Z,100317.22
2022-11-24T01:46:17.679Z,100323.06
2022-11-24T01:48:49.048Z,100332.81
2022-11-24T01:51:27.740Z,100328.69
2022-11-24T01:54:00.922Z,100331.81
2022-11-24T01:56:30.292Z,100338.34
2022-11-24T01:59:00.321Z,100340.03
2022-11-24T02:01:27.765Z,100343.19
2022-11-24T02:03:54.732Z,100351.41
2022-11-24T02:06:29.051Z,100355.66
2022-11-24T02:09:13.589Z,100352.63
2022-11-24T02:11:41.687Z,100366.91
2022-11-24T02:14:11.498Z,100362.63
2022-11-24T02:16:41.568Z,100371.09
2022-11-24T02:19:22.729Z,100360.72
2022-11-24T02:21:49.165Z,100363.41
2022-11-24T02:24:25.398Z,100365.78
2022-11-24T02:26:54.451Z,100363.41
2022-11-24T02:29:21.101Z,100366.13
2022-11-24T02:31:55.141Z,100368.81
2022-11-24T02:34:21.559Z,100371.53
2022-11-24T02:36:48.005Z,100368.81
2022-11-24T02:39:15.349Z,100373.09
2022-11-24T02:41:46.637Z,100379.75
2022-11-24T02:44:15.483Z,100384.03
2022-11-24T02:46:42.112Z,100377.16
2022-11-24T02:49:08.602Z,100381.88
2022-11-24T02:51:35.056Z,100380.28
2022-11-24T02:54:01.556Z,100390.75
2022-11-24T02:56:27.983Z,100389.97
2022-11-24T02:58:54.485Z,100401.25
2022-11-24T03:01:20.998Z,100397.06
2022-11-24T03:03:47.525Z,100391.66
2022-11-24T03:06:13.982Z,100394.81
2022-11-24T03:08:40.401Z,100385.13
2022-11-24T03:11:06.805Z,100387.94
2022-11-24T03:13:33.502Z,100387.94
2022-11-24T03:15:59.988Z,100394.94
2022-11-24T03:18:26.481Z,100390.19
2022-11-24T03:20:52.871Z,100398.66
2022-11-24T03:23:19.324Z,100393.69
2022-11-24T03:25:45.729Z,100398.66
2022-11-24T03:28:12.142Z,100394.38
2022-11-24T03:30:38.551Z,100393.59
2022-11-24T03:33:07.147Z,100392.00
2022-11-24T03:35:33.601Z,100392.44
2022-11-24T03:38:00.081Z,100388.97
2022-11-24T03:40:26.523Z,100388.97
2022-11-24T03:42:52.955Z,100395.94
2022-11-24T03:48:07.536Z,100404.38
2022-11-24T03:50:33.928Z,100408.22
2022-11-24T03:53:00.350Z,100402.38
2022-11-24T03:55:26.778Z,100411.56
2022-11-24T03:57:53.303Z,100416.66
2022-11-24T04:00:19.852Z,100415.88
2022-11-24T04:02:48.128Z,100421.94
2022-11-24T04:05:15.007Z,100410.69
2022-11-24T04:07:41.929Z,100422.63
2022-11-24T04:10:08.952Z,100423.84
2022-11-24T04:12:44.277Z,100430.38
2022-11-24T04:15:20.902Z,100442.31
2022-11-24T04:17:49.544Z,100433.78
2022-11-24T04:20:17.323Z,100436.13
2022-11-24T04:22:44.032Z,100442.66
2022-11-24T04:25:10.726Z,100442.19
2022-11-24T04:27:37.890Z,100449.19
2022-11-24T04:30:07.152Z,100454.59
2022-11-24T04:32:33.535Z,100462.34
2022-11-24T04:34:59.984Z,100454.25
2022-11-24T04:37:26.498Z,100459.22
2022-11-24T04:39:54.929Z,100467.63
2022-11-24T04:42:21.581Z,100464.63
2022-11-24T04:44:48.035Z,100474.94
2022-11-24T04:47:20.339Z,100476.84
2022-11-24T04:49:48.058Z,100483.38
2022-11-24T04:52:14.991Z,100488.78
2022-11-24T04:54:41.496Z,100491.16
2022-11-24T04:57:09.401Z,100492.28
2022-11-24T04:59:35.808Z,100495.56
2022-11-24T05:02:02.217Z,100499.72
2022-11-24T05:04:28.738Z,100499.72
2022-11-24T05:06:55.164Z,100496.22
2022-11-24T05:09:21.908Z,100510.84
2022-11-24T05:11:48.387Z,100515.34
2022-11-24T05:14:14.836Z,100521.53
2022-11-24T05:16:41.314Z,100536.50
2022-11-24T05:19:08.416Z,100531.75
2022-11-24T05:21:34.916Z,100528.94
2022-11-24T05:24:01.405Z,100545.94
2022-11-24T05:26:27.831Z,100547.75
2022-11-24T05:28:54.304Z,100559.84
2022-11-24T05:31:20.867Z,100563.69
2022-11-24T05:33:47.452Z,100560.06
2022-11-24T05:36:33.432Z,100571.06
2022-11-24T05:39:00.405Z,100576.13
2022-11-24T05:41:26.921Z,100568.38
2022-11-24T05:43:53.376Z,100580.59
2022-11-24T05:46:19.896Z,100578.25
2022-11-24T05:48:46.374Z,100581.28
2022-11-24T05:51:12.866Z,100586.22
2022-11-24T05:53:39.281Z,100592.41
2022-11-24T05:56:06.115Z,100593.53
2022-11-24T05:58:32.524Z,100597.03
2022-11-24T06:00:58.955Z,100600.50
2022-11-24T06:03:25.355Z,100607.03
2022-11-24T06:05:51.800Z,100604.34
2022-11-24T06:08:18.237Z,100608.47
2022-11-24T06:10:44.681Z,100614.69
2022-11-24T06:13:11.143Z,100619.25
2022-11-24T06:15:38.584Z,100620.38
2022-11-24T06:18:05.124Z,100631.19
2022-11-24T06:20:33.048Z,100630.72
2022-11-24T06:23:00.663Z,100642.63
2022-11-24T06:25:28.312Z,100653.09
2022-11-24T06:27:55.021Z,100646.47
2022-11-24T06:30:21.481Z,100643.31
2022-11-24T06:32:49.903Z,100657.09
2022-11-24T06:35:16.708Z,100664.91
2022-11-24T06:37:43.168Z,100680.59
2022-11-24T06:40:10.139Z,100681.72
2022-11-24T06:42:37.261Z,100686.06
2022-11-24T06:45:08.719Z,100690.88
2022-11-24T06:47:36.024Z,100703.13
2022-11-24T06:50:02.735Z,100701.03
2022-11-24T06:52:29.275Z,100701.03
2022-11-24T06:54:55.939Z,100706.00
2022-11-24T06:57:22.359Z,100718.69
2022-11-24T06:59:48.969Z,100723.28
2022-11-24T07:02:15.445Z,100726.63
2022-11-24T07:04:41.951Z,100736.31
2022-11-24T07:07:08.733Z,100735.19
2022-11-24T07:09:35.224Z,100734.88
2022-11-24T07:12:02.331Z,100748.50
2022-11-24T07:14:28.860Z,100755.47
2022-11-24T07:16:55.385Z,100762.78
2022-11-24T07:19:25.068Z,100763.25
2022-11-24T07:21:51.828Z,100774.84
2022-11-24T07:24:18.752Z,100772.16
2022-11-24T07:26:45.328Z,100775.63
2022-11-24T07:29:11.808Z,100768.00
2022-11-24T07:31:38.339Z,100781.94
2022-11-24T07:34:05.096Z,100792.91
2022-11-24T07:36:31.597Z,100793.69
2022-11-24T07:38:58.148Z,100797.97
2022-11-24T07:41:24.609Z,100805.75
2022-11-24T07:43:51.714Z,100811.59
2022-11-24T07:46:19.540Z,100818.56
2022-11-24T07:48:46.344Z,100829.81
2022-11-24T07:51:12.956Z,100834.13
2022-11-24T07:53:39.720Z,100834.59
2022-11-24T07:56:06.807Z,100841.56
2022-11-24T07:58:36.556Z,100846.97
2022-11-24T08:01:17.783Z,100849.69
2022-11-24T08:03:45.686Z,100848.56
2022-11-24T08:06:25.136Z,100860.47
2022-11-24T08:08:54.557Z,100869.69
2022-11-24T08:11:21.126Z,100871.72
2022-11-24T08:13:47.651Z,100873.31
2022-11-24T08:16:17.481Z,100873.31
2022-11-24T08:18:48.772Z,100883.78
2022-11-24T08:21:15.292Z,100878.09
2022-11-24T08:23:42.392Z,100876.50
2022-11-24T08:26:13.786Z,100887.75
2022-11-24T08:28:40.475Z,100901.72
2022-11-24T08:31:12.556Z,100897.44
2022-11-24T08:33:39.837Z,100894.88
2022-11-24T08:36:14.027Z,100897.72
2022-11-24T08:38:41.446Z,100895.28
2022-11-24T08:41:14.128Z,100900.69
2022-11-24T08:43:41.334Z,100896.75
2022-11-24T08:46:13.815Z,100901.69
2022-11-24T08:48:41.439Z,100899.13
2022-11-24T08:51:13.298Z,100918.00
2022-11-24T08:53:41.043Z,100920.56
2022-11-24T08:56:09.529Z,100918.78
2022-11-24T08:58:36.851Z,100922.75
2022-11-24T09:01:15.422Z,100920.66
2022-11-24T09:03:48.610Z,100927.78
2022-11-24T09:06:23.466Z,100925.22
2022-11-24T09:08:50.723Z,100927.91
2022-11-24T09:11:17.415Z,100927.28
2022-11-24T09:13:44.613Z,100942.19
2022-11-24T09:16:14.602Z,100939.47
2022-11-24T09:18:41.831Z,100931.69
2022-11-24T09:21:20.555Z,100939.81
2022-11-24T09:23:49.188Z,100947.25
2022-11-24T09:26:27.895Z,100948.06
2022-11-24T09:28:57.908Z,100945.66
2022-11-24T09:31:27.344Z,100953.59
2022-11-24T09:33:55.088Z,100965.19
2022-11-24T09:36:22.489Z,100962.16
2022-11-24T09:38:49.340Z,100958.69
2022-11-24T09:41:39.360Z,100961.38
2022-11-24T09:44:25.576Z,100977.25
2022-11-24T09:47:15.305Z,100985.81
2022-11-24T09:49:51.786Z,100984.88
2022-11-24T09:52:37.500Z,100990.88
2022-11-24T09:55:13.147Z,100991.34
2022-11-24T09:57:43.868Z,100996.13
2022-11-24T10:00:13.307Z,100998.50
2022-11-24T10:02:39.937Z,100991.34
2022-11-24T10:05:07.060Z,100996.41
2022-11-24T10:07:40.080Z,100997.81
2022-11-24T10:10:25.021Z,100995.84
2022-11-24T10:13:00.777Z,100999.28
2022-11-24T10:16:01.411Z,101016.78
2022-11-24T10:18:46.292Z,101032.06
2022-11-24T10:21:51.544Z,101019.00
2022-11-24T10:24:35.751Z,101025.56
2022-11-24T10:27:26.436Z,101027.34
2022-11-24T10:29:52.993Z,101029.41
2022-11-24T10:32:25.593Z,101037.06
2022-11-24T10:34:54.127Z,101036.25
2022-11-24T10:37:30.668Z,101039.41
2022-11-24T10:40:04.035Z,101052.63
2022-11-24T10:42:37.977Z,101046.09
2022-11-24T10:45:15.151Z,101057.34
2022-11-24T10:47:43.030Z,101061.00
2022-11-24T10:50:26.241Z,101067.34
2022-11-24T10:53:16.213Z,101057.78
2022-11-24T10:55:55.052Z,101079.09
2022-11-24T10:58:38.614Z,101074.16
2022-11-24T11:01:14.234Z,101068.41
2022-11-24T11:03:49.652Z,101071.44
2022-11-24T11:06:23.028Z,101076.84
2022-11-24T11:08:49.884Z,101070.47
2022-11-24T11:11:19.674Z,101073.31
2022-11-24T11:13:58.161Z,101070.25
2022-11-24T11:16:39.104Z,101077.41
2022-11-24T11:19:58.511Z,101067.81
2022-11-24T11:22:32.883Z,101068.09
2022-11-24T11:25:32.056Z,101063.75
2022-11-24T11:28:18.581Z,101065.44
2022-11-24T11:34:04.659Z,101065.50
2022-11-24T11:36:33.111Z,101062.13
2022-11-24T11:38:59.816Z,101065.09
2022-11-24T11:41:32.336Z,101066.69
2022-11-24T11:44:13.563Z,101056.91
2022-11-24T11:46:40.179Z,101060.41
2022-11-24T11:49:12.125Z,101055.38
2022-11-24T11:51:44.386Z,101055.94
2022-11-24T11:54:26.920Z,101062.63
2022-11-24T11:57:03.370Z,101062.94
2022-11-24T11:59:49.044Z,101057.53
2022-11-24T12:02:39.850Z,101050.97
2022-11-24T12:05:24.911Z,101068.38
2022-11-24T12:08:10.897Z,101064.56
2022-11-24T12:11:10.692Z,101059.53
2022-11-24T12:13:51.438Z,101060.56
2022-11-24T12:16:42.596Z,101069.47
2022-11-24T12:19:24.206Z,101067.44
2022-11-24T12:21:59.836Z,101062.94
2022-11-24T12:24:55.416Z,101060.47
2022-11-24T12:27:39.741Z,101066.78
2022-11-24T12:30:15.015Z,101057.50
2022-11-24T12:33:00.252Z,101069.59
2022-11-24T12:35:44.180Z,101073.13
2022-11-24T12:38:25.782Z,101073.22
2022-11-24T12:41:25.519Z,101075.25
2022-11-24T12:43:52.939Z,101077.75
2022-11-24T12:46:19.417Z,101090.75
2022-11-24T12:49:01.130Z,101083.06
2022-11-24T12:51:32.876Z,101076.72
2022-11-24T12:54:03.305Z,101084.97
2022-11-24T12:56:57.710Z,101094.47
2022-11-24T12:59:45.580Z,101086.31
2022-11-24T13:02:18.029Z,101087.13
2022-11-24T13:04:55.676Z,101079.06
2022-11-24T13:07:37.995Z,101087.34
2022-11-24T13:10:40.113Z,101082.00
2022-11-24T13:13:11.936Z,101081.66
2022-11-24T13:19:09.551Z,101077.09
2022-11-24T13:21:50.803Z,101084.66
2022-11-24T13:24:18.133Z,101080.91
2022-11-24T13:26:50.946Z,101075.13
2022-11-24T13:29:33.189Z,101079.19
2022-11-24T13:32:02.672Z,101085.75
2022-11-24T13:34:41.218Z,101079.84
2022-11-24T13:37:29.095Z,101076.13
2022-11-24T13:40:07.886Z,101070.91
2022-11-24T13:43:03.200Z,101079.84
2022-11-24T13:45:35.700Z,101075.88
2022-11-24T13:48:02.146Z,101066.69
2022-11-24T13:50:50.445Z,101064.25
2022-11-24T13:53:17.057Z,101060.16
2022-11-24T13:55:55.813Z,101068.19
2022-11-24T13:58:29.696Z,101067.59
2022-11-24T14:01:25.622Z,101068.13
2022-11-24T14:04:28.791Z,101065.34
2022-11-24T14:06:52.256Z,101059.91
2022-11-24T14:09:33.000Z,101057.88
2022-11-24T14:12:02.523Z,101057.47
2022-11-24T14:14:29.114Z,101070.16
2022-11-24T14:17:28.494Z,101065.06
2022-11-24T14:19:57.148Z,101059.81
2022-11-24T14:22:36.635Z,101051.38
2022-11-24T14:25:03.864Z,101050.16
2022-11-24T14:27:38.582Z,101047.25
2022-11-24T14:30:08.062Z,101048.56
2022-11-24T14:32:34.601Z,101050.03
2022-11-24T14:35:01.277Z,101054.03
2022-11-24T14:37:27.820Z,101044.22
2022-11-24T14:39:54.349Z,101052.19
2022-11-24T14:42:24.017Z,101056.97
2022-11-24T14:44:58.712Z,101053.66
2022-11-24T14:47:36.256Z,101062.38
2022-11-24T14:50:10.832Z,101061.38
2022-11-24T14:52:45.674Z,101067.44
2022-11-24T14:55:30.763Z,101062.16
2022-11-24T14:57:58.342Z,101069.09
2022-11-24T15:00:24.760Z,101071.06
2022-11-24T15:03:07.770Z,101062.63
2022-11-24T15:05:58.537Z,101064.69
2022-11-24T15:08:28.635Z,101053.47
2022-11-24T15:11:03.135Z,101073.91
2022-11-24T15:13:37.045Z,101073.66
2022-11-24T15:16:15.872Z,101069.69
2022-11-24T15:18:55.032Z,101072.31
2022-11-24T15:21:32.888Z,101070.84
2022-11-24T15:24:19.115Z,101073.56
2022-11-24T15:26:46.249Z,101074.81
2022-11-24T15:29:13.516Z,101080.00
2022-11-24T15:31:42.697Z,101089.00
2022-11-24T15:34:14.174Z,101083.78
2022-11-24T15:36:40.655Z,101082.53
2022-11-24T15:39:07.190Z,101083.41
2022-11-24T15:41:33.763Z,101083.63
2022-11-24T15:44:00.288Z,101086.09
2022-11-24T15:46:37.823Z,101083.13
2022-11-24T15:49:05.188Z,101079.03
2022-11-24T15:51:31.716Z,101083.91
2022-11-24T15:54:01.075Z,101078.00
2022-11-24T15:56:33.857Z,101088.91
2022-11-24T15:59:01.217Z,101079.53
2022-11-24T16:01:31.494Z,101081.34
2022-11-24T16:03:58.180Z,101080.41
2022-11-24T16:06:25.567Z,101080.41
2022-11-24T16:08:55.612Z,101090.78
2022-11-24T16:11:22.967Z,101087.75
2022-11-24T16:13:52.979Z,101077.94
2022-11-24T16:16:20.970Z,101085.00
2022-11-24T16:18:47.510Z,101078.19
2022-11-24T16:21:13.970Z,101074.56
2022-11-24T16:23:40.500Z,101073.28
2022-11-24T16:26:07.297Z,101081.13
2022-11-24T16:28:33.791Z,101082.34
2022-11-24T16:31:00.345Z,101087.31
2022-11-24T16:33:29.109Z,101087.78
2022-11-24T16:35:55.627Z,101097.13
2022-11-24T16:38:22.113Z,101092.97
2022-11-24T16:40:53.350Z,101091.38
2022-11-24T16:43:20.197Z,101095.81
2022-11-24T16:45:46.808Z,101092.50
2022-11-24T16:48:13.339Z,101081.63
2022-11-24T16:50:39.819Z,101084.97
2022-11-24T16:53:06.307Z,101084.72
2022-11-24T16:55:32.787Z,101086.16
2022-11-24T16:57:59.191Z,101087.75
2022-11-24T17:00:25.634Z,101076.00
2022-11-24T17:02:52.131Z,101084.72
2022-11-24T17:05:18.575Z,101092.19
2022-11-24T17:07:45.062Z,101089.16
2022-11-24T17:10:11.540Z,101084.53
2022-11-24T17:12:38.073Z,101090.72
2022-11-24T17:18:22.483Z,101080.22
2022-11-24T17:20:38.689Z,101091.06
2022-11-24T17:23:05.131Z,101095.69
2022-11-24T17:25:32.815Z,101087.09
2022-11-24T17:27:59.287Z,101088.34
2022-11-24T17:30:25.703Z,101087.22
2022-11-24T17:32:56.587Z,101088.47
2022-11-24T17:35:23.690Z,101085.66
2022-11-24T17:37:50.119Z,101092.97
2022-11-24T17:40:34.290Z,101087.44
2022-11-24T17:43:00.977Z,101087.28
2022-11-24T17:45:28.904Z,101091.13
2022-11-24T17:47:56.213Z,101093.81
2022-11-24T17:50:25.936Z,101097.00
2022-11-24T17:52:53.767Z,101095.88
2022-11-24T17:55:20.311Z,101098.56
2022-11-24T17:57:46.757Z,101090.44
2022-11-24T18:00:13.870Z,101085.38
2022-11-24T18:02:40.428Z,101084.59
2022-11-24T18:05:07.197Z,101091.91
2022-11-24T18:07:35.924Z,101086.50
2022-11-24T18:10:02.373Z,101091.13
2022-11-24T18:12:28.802Z,101093.03
2022-11-24T18:14:55.300Z,101091.44
2022-11-24T18:17:21.775Z,101085.59
2022-11-24T18:19:48.172Z,101094.81
2022-11-24T18:22:14.634Z,101106.91
2022-11-24T18:24:41.211Z,101098.78
2022-11-24T18:27:07.977Z,101093.38
2022-11-24T18:29:34.460Z,101098.00
2022-11-24T18:32:01.201Z,101087.81
2022-11-24T18:34:27.635Z,101082.38
2022-11-24T18:36:54.233Z,101083.50
2022-11-24T18:39:20.910Z,101079.38
2022-11-24T18:41:47.580Z,101079.69
2022-11-24T18:44:14.117Z,101074.16
2022-11-24T18:46:40.683Z,101072.09
2022-11-24T18:49:07.587Z,101082.16
2022-11-24T18:51:34.354Z,101089.47
2022-11-24T18:54:02.906Z,101086.59
2022-11-24T18:56:29.657Z,101079.16
2022-11-24T18:58:56.805Z,101073.28
2022-11-24T19:01:26.962Z,101074.88
2022-11-24T19:03:55.932Z,101073.94
2022-11-24T19:06:28.863Z,101077.75
2022-11-24T19:08:55.849Z,101077.28
2022-11-24T19:11:28.413Z,101077.97
2022-11-24T19:13:56.477Z,101070.47
2022-11-24T19:16:23.830Z,101074.31
2022-11-24T19:18:54.047Z,101068.91
2022-11-24T19:21:21.840Z,101072.25
2022-11-24T19:23:49.185Z,101057.63
2022-11-24T19:26:15.796Z,101071.81
2022-11-24T19:28:42.273Z,101051.25
2022-11-24T19:31:11.697Z,101052.72
2022-11-24T19:33:39.378Z,101053.84
2022-11-24T19:36:09.036Z,101049.09
2022-11-24T19:38:35.575Z,101054.50
2022-11-24T19:41:06.976Z,101049.44
2022-11-24T19:43:34.104Z,101053.88
2022-11-24T19:46:07.365Z,101053.75
2022-11-24T19:48:36.448Z,101057.88
2022-11-24T19:51:05.168Z,101055.84
2022-11-24T19:53:32.724Z,101053.00
2022-11-24T19:56:14.441Z,101062.03
2022-11-24T19:58:41.356Z,101063.63
2022-11-24T20:01:24.842Z,101067.78
2022-11-24T20:03:58.907Z,101076.22
2022-11-24T20:06:33.132Z,101068.56
2022-11-24T20:09:00.580Z,101072.38
2022-11-24T20:11:28.458Z,101068.56
2022-11-24T20:13:55.565Z,101071.13
2022-11-24T20:16:28.141Z,101070.00
2022-11-24T20:18:56.588Z,101063.31
2022-11-24T20:21:25.398Z,101064.78
2022-11-24T20:23:55.307Z,101065.56
2022-11-24T20:26:23.478Z,101061.75
2022-11-24T20:28:51.596Z,101054.59
2022-11-24T20:31:21.025Z,101057.75
2022-11-24T20:33:47.624Z,101052.00
2022-11-24T20:36:17.276Z,101054.38
2022-11-24T20:38:45.165Z,101047.59
2022-11-24T20:41:17.565Z,101068.44
2022-11-24T20:43:45.038Z,101061.13
2022-11-24T20:46:21.348Z,101054.38
2022-11-24T20:48:47.939Z,101060.75
2022-11-24T20:51:21.419Z,101051.84
2022-11-24T20:53:48.927Z,101056.47
2022-11-24T20:56:19.969Z,101043.25
2022-11-24T20:58:46.640Z,101056.91
2022-11-24T21:01:19.616Z,101059.63
2022-11-24T21:03:47.246Z,101063.91
2022-11-24T21:06:14.652Z,101053.88
2022-11-24T21:08:42.374Z,101048.16
2022-11-24T21:11:11.409Z,101045.91
2022-11-24T21:13:39.328Z,101044.03
2022-11-24T21:16:18.838Z,101040.19
2022-11-24T21:18:47.508Z,101036.22
2022-11-24T21:21:14.271Z,101033.84
2022-11-24T21:23:40.942Z,101044.31
2022-11-24T21:26:14.913Z,101032.72
2022-11-24T21:28:44.236Z,101027.78
2022-11-24T21:31:13.438Z,101034.44
2022-11-24T21:33:41.882Z,101026.50
2022-11-24T21:36:09.108Z,101029.56
2022-11-24T21:38:35.688Z,101036.09
2022-11-24T21:41:13.880Z,101030.34
2022-11-24T21:43:40.424Z,101025.59
2022-11-24T21:46:08.640Z,101026.50
2022-11-24T21:48:36.992Z,101035.28
2022-11-24T21:51:06.169Z,101034.97
2022-11-24T21:53:35.675Z,101020.66
2022-11-24T21:56:09.554Z,101027.63
2022-11-24T21:58:36.556Z,101016.81
2022-11-24T22:01:05.321Z,101023.03
2022-11-24T22:03:32.166Z,101012.88
2022-11-24T22:06:00.291Z,101024.16
2022-11-24T22:08:28.710Z,101016.38
2022-11-24T22:11:12.498Z,101007.91
2022-11-24T22:13:39.856Z,101002.50
2022-11-24T22:16:11.790Z,101006.47
2022-11-24T22:18:40.617Z,101007.25
2022-11-24T22:21:10.511Z,101005.22
2022-11-24T22:23:37.267Z,101007.25
2022-11-24T22:26:03.789Z,101006.47
2022-11-24T22:28:35.206Z,101005.34
2022-11-24T22:31:06.869Z,101003.59
2022-11-24T22:33:33.755Z,101001.00
2022-11-24T22:36:01.002Z,101008.66
2022-11-24T22:38:28.507Z,101002.91
2022-11-24T22:40:55.058Z,101008.78
2022-11-24T22:43:23.058Z,101007.69
2022-11-24T22:45:49.813Z,101004.97
2022-11-24T22:48:16.374Z,101009.41
2022-11-24T22:50:42.824Z,101002.22
2022-11-24T22:53:09.306Z,101006.34
2022-11-24T22:55:35.843Z,101003.31
2022-11-24T22:58:02.348Z,101007.75
2022-11-24T23:00:28.823Z,101005.84
2022-11-24T23:02:55.362Z,101008.22
2022-11-24T23:05:21.833Z,101005.84
2022-11-24T23:07:48.350Z,101010.59
2022-11-24T23:10:14.843Z,101009.16
2022-11-24T23:12:41.247Z,101015.81
2022-11-24T23:15:08.127Z,101007.69
2022-11-24T23:17:34.577Z,101010.84
2022-11-24T23:20:00.988Z,101011.66
2022-11-24T23:22:27.476Z,101002.75
2022-11-24T23:24:53.901Z,100993.50
2022-11-24T23:27:20.425Z,100994.63
2022-11-24T23:29:46.855Z,101000.81
2022-11-24T23:32:13.240Z,100993.84
2022-11-24T23:34:39.717Z,100994.28
2022-11-24T23:37:06.214Z,100991.28
2022-11-24T23:39:32.653Z,100995.56
2022-11-24T23:41:59.064Z,100997.78
2022-11-24T23:44:27.097Z,100996.19
2022-11-24T23:46:53.529Z,100995.06
2022-11-24T23:49:20.025Z,100984.13
2022-11-24T23:51:46.840Z,100984.81
2022-11-24T23:54:13.431Z,100986.72
2022-11-24T23:56:39.836Z,100985.00
2022-11-24T23:59:06.322Z,100994.41
